עמוד ראשי
METAR-TAF:

METAR-TAF

שדות תעופה :

Nuiqsut, אלסקה, ארצות הברית

קו רוחב: 70-12-36N, קו אורך: 151-00-20W, גובה: 12מטר

תצפית מזג אוויר נוכחית

הדו"ח נערך לפני 13דקות, בשעה 16:19 UTC
רוח 5קשר מכיוון צפון-מערב
טמפרטורת 2 צלסיוס
לחות 93%
לחץ 1024 hPa
ראות: 9.7קילומטר
מעונן בגובה 300רגל
אד

METAR: PAQT 151619Z AUTO 32005KT 6SM BR OVC003 02/01 A3025 RMK AO2 T00170011 TSNO $

זמן: 08:32 (16:32 UTC)

תחזית

הדו"ח נערך לפני 4 שעות ו 52דקות, בשעה 11:40 UTC
תחזית בתוקף מ 15 ב 12 UTC עד 16 ב 12 UTC
רוח 3קשר מכיוון מזרח
ראות: 3.2קילומטר
מעונן בגובה 200רגל
אד
מ 15 ב 1800UTC
רוח 5קשר עם כיוונים משתנים
ראות: 10קילומטר
עננים בינוניים בגובה 300רגל
מ 15 ב 2100UTC
רוח 6קשר מכיוון צפון
ראות: 10קילומטר
עננים פזורים בגובה 300רגל
מ 16 ב 1000UTC
רוח 5קשר מכיוון מזרח/צפון-מזרח
ראות: 2.4קילומטר
עננים בינוניים בגובה 700רגל
אד,

TAF: PAQT 151140Z 1512/1612 09003KT 2SM BR OVC002 FM151800 VRB05KT P6SM BKN003 FM152100 35006KT P6SM SCT003 FM161000 07005KT 1 1/2SM BR BKN007

תצפיות ותחזיות מזג אוויר לגבי יותר מ- 4,000 שדות תעופה ברחבי העולם. דוחות METAR ו- TAF.

התחנות הזמינות מסומנות בנקודות צהובות ואדומות על גבי המפה.

העבר את העכבר לנקודה הצבעונית על מנת לראות את שם התחנה.

לאחר מכן, לחץ כדי לראות את תוכן ואת תחזיות מזג האוויר.

כדי לשנות את המפה: לחץ על הכפתורים הירוקים עם הפלוס השחור כדי להתקרב; על הכפתור הירוק עם המקף כדי להתרחק; או בחיצים הירוקים למפות סמוכות.


METAR-TAF: